createdAt,value
2023-05-21T00:00:57.027Z,101416.00
2023-05-21T00:03:28.552Z,101418.00
2023-05-21T00:06:01.800Z,101414.00
2023-05-21T00:08:32.078Z,101411.00
2023-05-21T00:11:02.136Z,101415.00
2023-05-21T00:13:32.228Z,101418.00
2023-05-21T00:16:02.358Z,101411.00
2023-05-21T00:18:32.570Z,101407.00
2023-05-21T00:21:05.270Z,101404.00
2023-05-21T00:23:36.758Z,101398.00
2023-05-21T00:26:06.818Z,101406.00
2023-05-21T00:28:36.849Z,101398.00
2023-05-21T00:31:06.950Z,101398.00
2023-05-21T00:33:36.979Z,101397.00
2023-05-21T00:36:10.557Z,101399.00
2023-05-21T00:38:43.688Z,101385.00
2023-05-21T00:41:14.253Z,101386.00
2023-05-21T00:43:44.833Z,101383.00
2023-05-21T00:46:23.463Z,101371.00
2023-05-21T00:48:54.235Z,101377.00
2023-05-21T00:51:30.472Z,101381.00
2023-05-21T00:54:01.217Z,101368.00
2023-05-21T00:56:31.507Z,101366.00
2023-05-21T00:59:05.745Z,101363.00
2023-05-21T01:01:37.223Z,101362.00
2023-05-21T01:04:07.895Z,101369.00
2023-05-21T01:06:40.701Z,101369.00
2023-05-21T01:09:10.857Z,101367.00
2023-05-21T01:11:43.833Z,101366.00
2023-05-21T01:14:15.511Z,101368.00
2023-05-21T01:16:49.581Z,101350.00
2023-05-21T01:19:23.122Z,101339.00
2023-05-21T01:21:59.786Z,101352.00
2023-05-21T01:24:32.625Z,101357.00
2023-05-21T01:27:07.806Z,101360.00
2023-05-21T01:29:38.046Z,101357.00
2023-05-21T01:32:14.456Z,101356.00
2023-05-21T01:34:51.211Z,101364.00
2023-05-21T01:37:28.644Z,101344.00
2023-05-21T01:40:12.393Z,101363.00
2023-05-21T01:42:46.254Z,101360.00
2023-05-21T01:45:19.316Z,101344.00
2023-05-21T01:47:53.470Z,101360.00
2023-05-21T01:50:26.012Z,101359.00
2023-05-21T01:52:58.674Z,101352.00
2023-05-21T01:55:31.500Z,101344.00
2023-05-21T01:58:02.949Z,101332.00
2023-05-21T02:00:34.797Z,101338.00
2023-05-21T02:03:04.995Z,101346.00
2023-05-21T02:05:35.524Z,101343.00
2023-05-21T02:08:08.545Z,101346.00
2023-05-21T02:10:41.496Z,101336.00
2023-05-21T02:13:11.606Z,101333.00
2023-05-21T02:15:41.734Z,101338.00
2023-05-21T02:18:11.916Z,101334.00
2023-05-21T02:20:42.063Z,101329.00
2023-05-21T02:23:12.431Z,101332.00
2023-05-21T02:25:45.123Z,101335.00
2023-05-21T02:28:16.097Z,101337.00
2023-05-21T02:30:46.318Z,101335.00
2023-05-21T02:33:20.406Z,101343.00
2023-05-21T02:35:50.656Z,101339.00
2023-05-21T02:38:23.349Z,101337.00
2023-05-21T02:40:56.344Z,101334.00
2023-05-21T02:43:26.534Z,101322.00
2023-05-21T02:45:56.857Z,101328.00
2023-05-21T02:48:27.022Z,101329.00
2023-05-21T02:50:57.266Z,101329.00
2023-05-21T02:53:27.470Z,101322.00
2023-05-21T02:56:00.363Z,101326.00
2023-05-21T02:58:30.556Z,101319.00
2023-05-21T03:01:00.743Z,101319.00
2023-05-21T03:03:32.142Z,101320.00
2023-05-21T03:06:02.439Z,101310.00
2023-05-21T03:08:32.625Z,101324.00
2023-05-21T03:11:05.377Z,101322.00
2023-05-21T03:13:35.633Z,101324.00
2023-05-21T03:16:05.959Z,101325.00
2023-05-21T03:18:36.216Z,101317.00
2023-05-21T03:21:06.687Z,101319.00
2023-05-21T03:23:37.226Z,101318.00
2023-05-21T03:26:09.938Z,101322.00
2023-05-21T03:28:40.078Z,101323.00
2023-05-21T03:31:10.253Z,101331.00
2023-05-21T03:33:40.405Z,101328.00
2023-05-21T03:36:10.907Z,101315.00
2023-05-21T03:38:41.084Z,101315.00
2023-05-21T03:41:14.500Z,101313.00
2023-05-21T03:43:44.672Z,101319.00
2023-05-21T03:46:14.816Z,101321.00
2023-05-21T03:48:45.003Z,101320.00
2023-05-21T03:51:16.253Z,101327.00
2023-05-21T03:53:46.445Z,101328.00
2023-05-21T03:56:19.369Z,101319.00
2023-05-21T03:58:49.720Z,101317.00
2023-05-21T04:01:19.958Z,101335.00
2023-05-21T04:03:50.187Z,101327.00
2023-05-21T04:06:20.725Z,101325.00
2023-05-21T04:08:50.898Z,101321.00
2023-05-21T04:11:23.819Z,101323.00
2023-05-21T04:13:53.988Z,101323.00
2023-05-21T04:16:24.859Z,101329.00
2023-05-21T04:18:55.661Z,101329.00
2023-05-21T04:21:25.789Z,101327.00
2023-05-21T04:23:57.740Z,101333.00
2023-05-21T04:26:34.039Z,101331.00
2023-05-21T04:29:05.166Z,101330.00
2023-05-21T04:31:35.584Z,101330.00
2023-05-21T04:34:06.521Z,101337.00
2023-05-21T04:36:36.597Z,101331.00
2023-05-21T04:39:07.461Z,101345.00
2023-05-21T04:41:40.117Z,101331.00
2023-05-21T04:44:11.462Z,101337.00
2023-05-21T04:46:41.892Z,101332.00
2023-05-21T04:49:12.882Z,101330.00
2023-05-21T04:51:42.930Z,101336.00
2023-05-21T04:54:13.042Z,101332.00
2023-05-21T04:56:47.539Z,101332.00
2023-05-21T04:59:18.797Z,101340.00
2023-05-21T05:01:49.250Z,101335.00
2023-05-21T05:04:19.386Z,101335.00
2023-05-21T05:06:49.599Z,101334.00
2023-05-21T05:09:21.691Z,101339.00
2023-05-21T05:11:54.473Z,101333.00
2023-05-21T05:14:24.535Z,101346.00
2023-05-21T05:16:54.704Z,101348.00
2023-05-21T05:19:24.929Z,101350.00
2023-05-21T05:21:55.162Z,101350.00
2023-05-21T05:24:25.258Z,101346.00
2023-05-21T05:26:57.938Z,101348.00
2023-05-21T05:29:28.005Z,101346.00
2023-05-21T05:31:58.084Z,101343.00
2023-05-21T05:34:28.411Z,101343.00
2023-05-21T05:36:59.068Z,101346.00
2023-05-21T05:39:29.139Z,101348.00
2023-05-21T05:42:02.083Z,101349.00
2023-05-21T05:44:32.150Z,101358.00
2023-05-21T05:47:02.212Z,101344.00
2023-05-21T05:49:32.310Z,101352.00
2023-05-21T05:52:03.247Z,101346.00
2023-05-21T05:54:33.328Z,101338.00
2023-05-21T05:57:06.068Z,101352.00
2023-05-21T05:59:36.633Z,101340.00
2023-05-21T06:02:07.095Z,101338.00
2023-05-21T06:04:37.186Z,101333.00
2023-05-21T06:07:07.938Z,101337.00
2023-05-21T06:09:38.996Z,101330.00
2023-05-21T06:12:14.738Z,101342.00
2023-05-21T06:14:46.267Z,101334.00
2023-05-21T06:17:16.505Z,101330.00
2023-05-21T06:19:46.706Z,101332.00
2023-05-21T06:22:17.017Z,101324.00
2023-05-21T06:24:47.292Z,101313.00
2023-05-21T06:27:20.060Z,101322.00
2023-05-21T06:29:50.369Z,101326.00
2023-05-21T06:32:21.659Z,101332.00
2023-05-21T06:34:51.965Z,101331.00
2023-05-21T06:37:25.853Z,101327.00
2023-05-21T06:39:56.540Z,101323.00
2023-05-21T06:42:29.284Z,101329.00
2023-05-21T06:44:59.461Z,101322.00
2023-05-21T06:47:29.632Z,101328.00
2023-05-21T06:49:59.721Z,101318.00
2023-05-21T06:52:31.920Z,101321.00
2023-05-21T06:55:02.041Z,101320.00
2023-05-21T06:57:34.738Z,101320.00
2023-05-21T07:00:05.229Z,101331.00
2023-05-21T07:02:35.461Z,101323.00
2023-05-21T07:05:05.651Z,101327.00
2023-05-21T07:07:35.818Z,101321.00
2023-05-21T07:10:06.034Z,101326.00
2023-05-21T07:12:38.716Z,101330.00
2023-05-21T07:15:10.578Z,101326.00
2023-05-21T07:17:40.736Z,101330.00
2023-05-21T07:20:12.654Z,101317.00
2023-05-21T07:22:43.926Z,101324.00
2023-05-21T07:25:13.998Z,101331.00
2023-05-21T07:27:46.669Z,101329.00
2023-05-21T07:30:18.111Z,101328.00
2023-05-21T07:32:48.214Z,101332.00
2023-05-21T07:35:18.565Z,101328.00
2023-05-21T07:37:49.044Z,101327.00
2023-05-21T07:40:19.512Z,101326.00
2023-05-21T07:42:52.412Z,101326.00
2023-05-21T07:45:22.904Z,101324.00
2023-05-21T07:47:53.060Z,101332.00
2023-05-21T07:50:23.208Z,101323.00
2023-05-21T07:52:53.369Z,101322.00
2023-05-21T07:55:23.920Z,101321.00
2023-05-21T07:57:56.632Z,101325.00
2023-05-21T08:00:27.478Z,101321.00
2023-05-21T08:02:57.648Z,101313.00
2023-05-21T08:05:27.764Z,101320.00
2023-05-21T08:08:00.372Z,101324.00
2023-05-21T08:10:30.429Z,101318.00
2023-05-21T08:13:03.095Z,101319.00
2023-05-21T08:15:33.152Z,101316.00
2023-05-21T08:18:03.339Z,101324.00
2023-05-21T08:20:33.847Z,101330.00
2023-05-21T08:23:04.162Z,101320.00
2023-05-21T08:25:34.521Z,101328.00
2023-05-21T08:28:07.644Z,101328.00
2023-05-21T08:30:37.710Z,101323.00
2023-05-21T08:33:07.948Z,101331.00
2023-05-21T08:35:38.269Z,101320.00
2023-05-21T08:38:08.668Z,101329.00
2023-05-21T08:40:38.770Z,101332.00
2023-05-21T08:43:14.665Z,101333.00
2023-05-21T08:45:48.952Z,101312.00
2023-05-21T08:48:19.882Z,101316.00
2023-05-21T08:50:50.161Z,101328.00
2023-05-21T08:53:28.262Z,101318.00
2023-05-21T08:56:00.181Z,101318.00
2023-05-21T08:58:36.490Z,101323.00
2023-05-21T09:01:07.952Z,101320.00
2023-05-21T09:03:39.590Z,101319.00
2023-05-21T09:06:10.829Z,101322.00
2023-05-21T09:08:46.949Z,101321.00
2023-05-21T09:11:18.040Z,101318.00
2023-05-21T09:13:52.233Z,101312.00
2023-05-21T09:16:22.583Z,101320.00
2023-05-21T09:18:53.096Z,101312.00
2023-05-21T09:21:27.798Z,101322.00
2023-05-21T09:23:59.783Z,101316.00
2023-05-21T09:26:30.175Z,101308.00
2023-05-21T09:29:03.922Z,101322.00
2023-05-21T09:31:34.102Z,101320.00
2023-05-21T09:34:04.286Z,101311.00
2023-05-21T09:36:34.881Z,101315.00
2023-05-21T09:39:05.124Z,101319.00
2023-05-21T09:41:37.092Z,101309.00
2023-05-21T09:44:10.726Z,101310.00
2023-05-21T09:46:42.595Z,101304.00
2023-05-21T09:49:26.905Z,101309.00
2023-05-21T09:51:59.657Z,101310.00
2023-05-21T09:54:35.475Z,101306.00
2023-05-21T09:57:06.027Z,101307.00
2023-05-21T09:59:42.292Z,101306.00
2023-05-21T10:02:22.897Z,101304.00
2023-05-21T10:04:55.289Z,101299.00
2023-05-21T10:07:29.061Z,101293.00
2023-05-21T10:10:00.568Z,101293.00
2023-05-21T10:12:33.515Z,101296.00
2023-05-21T10:15:08.227Z,101287.00
2023-05-21T10:17:38.522Z,101297.00
2023-05-21T10:20:11.823Z,101286.00
2023-05-21T10:22:43.063Z,101289.00
2023-05-21T10:25:15.674Z,101274.00
2023-05-21T10:27:46.158Z,101277.00
2023-05-21T10:30:21.234Z,101279.00
2023-05-21T10:32:52.790Z,101276.00
2023-05-21T10:35:23.064Z,101279.00
2023-05-21T10:37:54.999Z,101275.00
2023-05-21T10:40:25.380Z,101262.00
2023-05-21T10:43:16.602Z,101258.00
2023-05-21T10:46:08.948Z,101269.00
2023-05-21T10:49:03.635Z,101260.00
2023-05-21T10:51:52.114Z,101259.00
2023-05-21T10:54:58.339Z,101262.00
2023-05-21T10:58:15.851Z,101259.00
2023-05-21T11:00:48.941Z,101254.00
2023-05-21T11:03:20.218Z,101252.00
2023-05-21T11:05:57.038Z,101248.00
2023-05-21T11:08:30.756Z,101243.00
2023-05-21T11:11:01.442Z,101255.00
2023-05-21T11:13:48.959Z,101249.00
2023-05-21T11:16:23.216Z,101254.00
2023-05-21T11:19:04.514Z,101256.00
2023-05-21T11:21:38.077Z,101252.00
2023-05-21T11:24:11.329Z,101254.00
2023-05-21T11:27:07.138Z,101256.00
2023-05-21T11:29:46.354Z,101253.00
2023-05-21T11:32:20.853Z,101255.00
2023-05-21T11:34:51.858Z,101242.00
2023-05-21T11:37:34.854Z,101245.00
2023-05-21T11:40:22.700Z,101254.00
2023-05-21T11:42:55.032Z,101249.00
2023-05-21T11:45:27.557Z,101249.00
2023-05-21T11:48:00.787Z,101239.00
2023-05-21T11:50:34.133Z,101245.00
2023-05-21T11:53:04.457Z,101236.00
2023-05-21T11:55:34.855Z,101246.00
2023-05-21T11:58:06.072Z,101237.00
2023-05-21T12:00:42.912Z,101239.00
2023-05-21T12:03:18.268Z,101239.00
2023-05-21T12:05:49.497Z,101240.00
2023-05-21T12:08:25.810Z,101245.00
2023-05-21T12:10:59.864Z,101247.00
2023-05-21T12:13:30.698Z,101233.00
2023-05-21T12:16:01.023Z,101226.00
2023-05-21T12:18:33.760Z,101222.00
2023-05-21T12:21:04.012Z,101226.00
2023-05-21T12:23:34.462Z,101229.00
2023-05-21T12:26:04.652Z,101231.00
2023-05-21T12:28:35.243Z,101227.00
2023-05-21T12:31:05.316Z,101240.00
2023-05-21T12:33:39.976Z,101239.00
2023-05-21T12:36:10.241Z,101228.00
2023-05-21T12:38:41.942Z,101241.00
2023-05-21T12:41:12.049Z,101241.00
2023-05-21T12:43:42.178Z,101229.00
2023-05-21T12:46:17.418Z,101226.00
2023-05-21T12:48:57.027Z,101236.00
2023-05-21T12:51:27.092Z,101230.00
2023-05-21T12:53:57.145Z,101228.00
2023-05-21T12:56:27.233Z,101228.00
2023-05-21T12:58:57.716Z,101237.00
2023-05-21T13:01:28.471Z,101234.00
2023-05-21T13:04:01.316Z,101225.00
2023-05-21T13:06:31.653Z,101227.00
2023-05-21T13:09:01.842Z,101225.00
2023-05-21T13:11:32.525Z,101221.00
2023-05-21T13:14:02.602Z,101222.00
2023-05-21T13:16:33.325Z,101216.00
2023-05-21T13:19:06.384Z,101217.00
2023-05-21T13:21:36.604Z,101211.00
2023-05-21T13:24:07.620Z,101211.00
2023-05-21T13:26:38.115Z,101207.00
2023-05-21T13:29:08.258Z,101216.00
2023-05-21T13:31:38.888Z,101219.00
2023-05-21T13:34:11.604Z,101216.00
2023-05-21T13:36:42.266Z,101204.00
2023-05-21T13:39:12.617Z,101203.00
2023-05-21T13:41:44.005Z,101208.00
2023-05-21T13:44:16.563Z,101207.00
2023-05-21T13:46:46.760Z,101203.00
2023-05-21T13:49:19.690Z,101211.00
2023-05-21T13:51:49.826Z,101207.00
2023-05-21T13:54:20.029Z,101194.00
2023-05-21T13:56:50.288Z,101213.00
2023-05-21T13:59:20.729Z,101197.00
2023-05-21T14:01:52.426Z,101184.00
2023-05-21T14:04:25.285Z,101186.00
2023-05-21T14:06:55.704Z,101181.00
2023-05-21T14:09:27.384Z,101187.00
2023-05-21T14:11:58.922Z,101187.00
2023-05-21T14:14:28.986Z,101188.00
2023-05-21T14:16:59.224Z,101189.00
2023-05-21T14:19:32.334Z,101190.00
2023-05-21T14:22:02.613Z,101194.00
2023-05-21T14:24:32.729Z,101188.00
2023-05-21T14:27:02.850Z,101193.00
2023-05-21T14:29:33.461Z,101194.00
2023-05-21T14:32:03.556Z,101194.00
2023-05-21T14:34:36.260Z,101189.00
2023-05-21T14:37:06.353Z,101198.00
2023-05-21T14:39:36.506Z,101199.00
2023-05-21T14:42:07.453Z,101192.00
2023-05-21T14:44:37.500Z,101200.00
2023-05-21T14:47:07.926Z,101196.00
2023-05-21T14:49:40.621Z,101203.00
2023-05-21T14:52:10.933Z,101193.00
2023-05-21T14:54:41.058Z,101204.00
2023-05-21T14:57:11.268Z,101194.00
2023-05-21T14:59:41.355Z,101194.00
2023-05-21T15:02:11.501Z,101189.00
2023-05-21T15:04:44.158Z,101191.00
2023-05-21T15:07:14.217Z,101191.00
2023-05-21T15:09:44.301Z,101180.00
2023-05-21T15:12:14.445Z,101190.00
2023-05-21T15:14:44.645Z,101192.00
2023-05-21T15:17:14.727Z,101190.00
2023-05-21T15:19:47.381Z,101178.00
2023-05-21T15:22:17.768Z,101181.00
2023-05-21T15:24:47.918Z,101188.00
2023-05-21T15:27:18.080Z,101184.00
2023-05-21T15:29:49.521Z,101182.00
2023-05-21T15:32:20.933Z,101172.00
2023-05-21T15:34:54.384Z,101177.00
2023-05-21T15:37:24.602Z,101174.00
2023-05-21T15:39:54.930Z,101172.00
2023-05-21T15:42:24.983Z,101182.00
2023-05-21T15:44:55.049Z,101184.00
2023-05-21T15:47:25.159Z,101176.00
2023-05-21T15:49:58.949Z,101179.00
2023-05-21T15:52:29.160Z,101184.00
2023-05-21T15:54:59.257Z,101176.00
2023-05-21T15:57:29.388Z,101173.00
2023-05-21T15:59:59.645Z,101183.00
2023-05-21T16:02:29.913Z,101183.00
2023-05-21T16:05:02.580Z,101177.00
2023-05-21T16:07:32.660Z,101178.00
2023-05-21T16:10:02.710Z,101174.00
2023-05-21T16:12:32.789Z,101167.00
2023-05-21T16:15:02.866Z,101165.00
2023-05-21T16:17:33.030Z,101166.00
2023-05-21T16:20:05.781Z,101163.00
2023-05-21T16:22:35.886Z,101154.00
2023-05-21T16:25:06.257Z,101164.00
2023-05-21T16:27:36.458Z,101157.00
2023-05-21T16:30:07.675Z,101157.00
2023-05-21T16:32:39.703Z,101162.00
2023-05-21T16:35:12.642Z,101148.00
2023-05-21T16:37:42.688Z,101160.00
2023-05-21T16:40:14.582Z,101164.00
2023-05-21T16:42:44.792Z,101152.00
2023-05-21T16:45:20.647Z,101155.00
2023-05-21T16:47:51.354Z,101163.00
2023-05-21T16:50:24.121Z,101160.00
2023-05-21T16:52:54.187Z,101163.00
2023-05-21T16:55:24.647Z,101164.00
2023-05-21T16:57:54.718Z,101173.00
2023-05-21T17:00:25.054Z,101162.00
2023-05-21T17:02:55.631Z,101163.00
2023-05-21T17:05:28.471Z,101170.00
2023-05-21T17:07:58.707Z,101164.00
2023-05-21T17:10:28.924Z,101177.00
2023-05-21T17:13:01.828Z,101178.00
2023-05-21T17:15:37.084Z,101175.00
2023-05-21T17:18:07.330Z,101174.00
2023-05-21T17:20:40.041Z,101170.00
2023-05-21T17:23:10.150Z,101174.00
2023-05-21T17:25:40.957Z,101174.00
2023-05-21T17:28:11.435Z,101177.00
2023-05-21T17:30:41.822Z,101185.00
2023-05-21T17:33:12.355Z,101186.00
2023-05-21T17:35:45.111Z,101189.00
2023-05-21T17:38:15.247Z,101175.00
2023-05-21T17:40:45.309Z,101174.00
2023-05-21T17:43:15.385Z,101167.00
2023-05-21T17:45:46.568Z,101172.00
2023-05-21T17:48:16.790Z,101171.00
2023-05-21T17:50:49.541Z,101169.00
2023-05-21T17:53:19.737Z,101168.00
2023-05-21T17:55:50.079Z,101163.00
2023-05-21T17:58:20.129Z,101170.00
2023-05-21T18:00:50.252Z,101172.00
2023-05-21T18:03:21.159Z,101174.00
2023-05-21T18:05:54.028Z,101182.00
2023-05-21T18:08:24.227Z,101176.00
2023-05-21T18:10:54.376Z,101183.00
2023-05-21T18:13:24.413Z,101184.00
2023-05-21T18:15:56.427Z,101188.00
2023-05-21T18:18:26.682Z,101195.00
2023-05-21T18:20:59.441Z,101194.00
2023-05-21T18:23:31.439Z,101193.00
2023-05-21T18:26:01.561Z,101199.00
2023-05-21T18:28:32.598Z,101198.00
2023-05-21T18:31:04.430Z,101204.00
2023-05-21T18:33:34.608Z,101190.00
2023-05-21T18:36:08.048Z,101193.00
2023-05-21T18:38:38.417Z,101195.00
2023-05-21T18:41:08.880Z,101202.00
2023-05-21T18:43:39.199Z,101202.00
2023-05-21T18:46:09.324Z,101199.00
2023-05-21T18:48:39.414Z,101207.00
2023-05-21T18:51:12.146Z,101200.00
2023-05-21T18:53:42.665Z,101198.00
2023-05-21T18:56:15.242Z,101197.00
2023-05-21T18:58:47.808Z,101193.00
2023-05-21T19:01:18.370Z,101194.00
2023-05-21T19:03:51.518Z,101196.00
2023-05-21T19:06:25.809Z,101200.00
2023-05-21T19:08:55.744Z,101203.00
2023-05-21T19:11:31.118Z,101198.00
2023-05-21T19:14:02.580Z,101203.00
2023-05-21T19:16:33.005Z,101197.00
2023-05-21T19:19:03.476Z,101212.00
2023-05-21T19:21:37.201Z,101212.00
2023-05-21T19:24:09.008Z,101216.00
2023-05-21T19:26:39.099Z,101220.00
2023-05-21T19:29:09.761Z,101223.00
2023-05-21T19:31:40.276Z,101226.00
2023-05-21T19:34:11.216Z,101234.00
2023-05-21T19:36:53.037Z,101234.00
2023-05-21T19:39:24.289Z,101227.00
2023-05-21T19:41:54.499Z,101241.00
2023-05-21T19:44:24.594Z,101241.00
2023-05-21T19:46:54.743Z,101242.00
2023-05-21T19:49:24.836Z,101242.00
2023-05-21T19:51:59.394Z,101240.00
2023-05-21T19:54:29.497Z,101238.00
2023-05-21T19:57:00.293Z,101232.00
2023-05-21T19:59:30.382Z,101239.00
2023-05-21T20:02:00.509Z,101239.00
2023-05-21T20:04:30.673Z,101232.00
2023-05-21T20:07:03.334Z,101234.00
2023-05-21T20:09:33.798Z,101234.00
2023-05-21T20:12:04.002Z,101230.00
2023-05-21T20:14:34.569Z,101232.00
2023-05-21T20:17:05.835Z,101231.00
2023-05-21T20:19:37.955Z,101236.00
2023-05-21T20:22:11.122Z,101235.00
2023-05-21T20:24:41.201Z,101232.00
2023-05-21T20:27:11.493Z,101227.00
2023-05-21T20:29:43.049Z,101229.00
2023-05-21T20:32:13.327Z,101235.00
2023-05-21T20:34:58.333Z,101236.00
2023-05-21T20:37:36.967Z,101221.00
2023-05-21T20:40:07.392Z,101234.00
2023-05-21T20:42:37.538Z,101231.00
2023-05-21T20:45:08.909Z,101238.00
2023-05-21T20:47:39.030Z,101240.00
2023-05-21T20:50:10.245Z,101236.00
2023-05-21T20:52:45.515Z,101240.00
2023-05-21T20:55:17.153Z,101243.00
2023-05-21T20:57:47.408Z,101245.00
2023-05-21T21:00:18.350Z,101248.00
2023-05-21T21:02:48.470Z,101254.00
2023-05-21T21:05:20.306Z,101243.00
2023-05-21T21:07:55.513Z,101243.00
2023-05-21T21:10:25.924Z,101248.00
2023-05-21T21:12:56.100Z,101246.00
2023-05-21T21:15:26.205Z,101249.00
2023-05-21T21:17:56.337Z,101253.00
2023-05-21T21:20:27.052Z,101255.00
2023-05-21T21:22:59.725Z,101251.00
2023-05-21T21:25:29.831Z,101256.00
2023-05-21T21:27:59.909Z,101251.00
2023-05-21T21:30:29.996Z,101255.00
2023-05-21T21:33:00.230Z,101249.00
2023-05-21T21:35:30.533Z,101257.00
2023-05-21T21:38:05.115Z,101247.00
2023-05-21T21:40:35.218Z,101248.00
2023-05-21T21:43:05.307Z,101257.00
2023-05-21T21:45:35.480Z,101257.00
2023-05-21T21:48:05.679Z,101254.00
2023-05-21T21:50:36.026Z,101255.00
2023-05-21T21:53:10.038Z,101255.00
2023-05-21T21:55:40.081Z,101249.00
2023-05-21T21:58:10.205Z,101252.00
2023-05-21T22:00:40.552Z,101260.00
2023-05-21T22:03:14.405Z,101252.00
2023-05-21T22:05:45.059Z,101251.00
2023-05-21T22:08:17.795Z,101259.00
2023-05-21T22:10:47.833Z,101257.00
2023-05-21T22:13:17.912Z,101261.00
2023-05-21T22:15:49.261Z,101261.00
2023-05-21T22:18:28.436Z,101262.00
2023-05-21T22:21:10.149Z,101254.00
2023-05-21T22:23:43.335Z,101259.00
2023-05-21T22:26:13.551Z,101253.00
2023-05-21T22:28:43.647Z,101257.00
2023-05-21T22:31:13.814Z,101250.00
2023-05-21T22:33:43.914Z,101256.00
2023-05-21T22:36:14.224Z,101253.00
2023-05-21T22:38:47.016Z,101255.00
2023-05-21T22:41:17.104Z,101240.00
2023-05-21T22:43:47.151Z,101245.00
2023-05-21T22:46:17.386Z,101248.00
2023-05-21T22:48:47.524Z,101230.00
2023-05-21T22:51:17.692Z,101239.00
2023-05-21T22:53:50.484Z,101235.00
2023-05-21T22:56:21.179Z,101248.00
2023-05-21T22:58:51.442Z,101244.00
2023-05-21T23:01:21.653Z,101244.00
2023-05-21T23:03:51.804Z,101235.00
2023-05-21T23:06:22.001Z,101240.00
2023-05-21T23:08:54.681Z,101247.00
2023-05-21T23:11:27.599Z,101242.00
2023-05-21T23:13:57.656Z,101241.00
2023-05-21T23:16:30.902Z,101243.00
2023-05-21T23:19:01.398Z,101239.00
2023-05-21T23:21:31.745Z,101240.00
2023-05-21T23:24:04.480Z,101231.00
2023-05-21T23:26:34.650Z,101238.00
2023-05-21T23:29:05.495Z,101235.00
2023-05-21T23:31:35.843Z,101236.00
2023-05-21T23:34:06.420Z,101241.00
2023-05-21T23:36:36.511Z,101236.00
2023-05-21T23:39:09.423Z,101236.00
2023-05-21T23:41:39.942Z,101240.00
2023-05-21T23:44:10.040Z,101232.00
2023-05-21T23:46:40.084Z,101233.00
2023-05-21T23:49:10.253Z,101232.00
2023-05-21T23:51:40.489Z,101223.00
2023-05-21T23:54:13.174Z,101219.00
2023-05-21T23:56:43.758Z,101221.00
2023-05-21T23:59:15.090Z,101219.00
